Time;durP1;ratioP1;P1;durP2;ratioP2;P2;SDS_P1;SDS_P2;PMS_P1;PMS_P2;Temp;Humidity;BMP_temperature;BMP_pressure;BME280_temperature;BME280_humidity;BME280_pressure;Samples;Min_cycle;Max_cycle;Signal;HPM_P1;HPM_P2
2023/05/23 00:04:35;;;;;;;7.82;6.80;;;20.10;71.10;;;;;;10437201;28;20283;-46
2023/05/23 00:09:36;;;;;;;7.00;5.82;;;20.10;71.10;;;;;;10411529;28;20519;-46
2023/05/23 00:14:39;;;;;;;9.68;6.25;;;20.10;71.10;;;;;;10410797;28;20124;-47
2023/05/23 00:19:40;;;;;;;7.63;5.95;;;20.10;71.10;;;;;;10426632;28;20078;-47
2023/05/23 00:24:40;;;;;;;7.28;6.57;;;20.10;71.10;;;;;;10451773;28;20114;-49
2023/05/23 00:29:41;;;;;;;6.07;5.38;;;20.10;71.10;;;;;;10419450;28;20093;-45
2023/05/23 00:34:43;;;;;;;8.02;6.30;;;20.10;71.10;;;;;;10416510;28;20013;-46
2023/05/23 00:39:43;;;;;;;5.88;5.28;;;20.10;71.10;;;;;;10451226;28;20018;-48
2023/05/23 00:44:44;;;;;;;5.93;5.22;;;20.10;71.10;;;;;;10450784;28;20013;-46
2023/05/23 00:49:45;;;;;;;6.78;5.43;;;20.10;71.10;;;;;;10451080;28;20055;-46
2023/05/23 00:54:46;;;;;;;7.35;6.20;;;20.10;71.10;;;;;;10426436;28;20549;-48
2023/05/23 00:59:47;;;;;;;7.97;5.30;;;20.10;71.30;;;;;;10409405;28;20515;-45
2023/05/23 01:04:53;;;;;;;8.18;6.07;;;20.10;71.10;;;;;;10409245;28;20037;-47
2023/05/23 01:09:54;;;;;;;7.25;6.03;;;20.10;71.10;;;;;;10436459;28;20029;-45
2023/05/23 01:15:08;;;;;;;6.68;5.97;;;20.10;71.10;;;;;;10450259;28;20041;-47
2023/05/23 01:20:25;;;;;;;6.47;5.18;;;20.10;71.10;;;;;;10450048;28;20029;-47
2023/05/23 01:26:17;;;;;;;6.45;5.05;;;20.10;71.10;;;;;;10425194;28;20037;-45
2023/05/23 01:31:20;;;;;;;5.88;5.22;;;20.00;71.00;;;;;;10439460;28;20036;-48
2023/05/23 01:36:21;;;;;;;7.55;5.15;;;20.00;71.10;;;;;;10448649;28;20400;-45
2023/05/23 01:41:22;;;;;;;5.38;4.88;;;20.00;71.10;;;;;;10449093;28;20032;-49
2023/05/23 01:46:23;;;;;;;5.75;4.88;;;20.00;71.00;;;;;;10449131;28;20620;-48
2023/05/23 01:51:26;;;;;;;5.18;4.53;;;20.00;71.00;;;;;;10447385;28;20025;-48
2023/05/23 01:56:29;;;;;;;7.47;5.55;;;20.00;71.00;;;;;;10448875;28;20021;-46
2023/05/23 02:01:30;;;;;;;7.35;5.45;;;20.00;71.10;;;;;;10447013;28;20377;-46
2023/05/23 02:06:31;;;;;;;6.80;5.68;;;20.00;71.10;;;;;;10446914;28;20041;-46
2023/05/23 02:11:32;;;;;;;6.15;5.32;;;20.00;71.00;;;;;;10447311;28;20035;-50
2023/05/23 02:16:35;;;;;;;6.40;5.28;;;20.00;71.00;;;;;;10447404;28;20053;-51
2023/05/23 02:21:36;;;;;;;5.60;5.10;;;20.00;71.10;;;;;;10447917;28;20617;-51
2023/05/23 02:26:37;;;;;;;5.10;4.60;;;19.90;71.00;;;;;;10447429;28;20183;-49
2023/05/23 02:31:38;;;;;;;6.45;5.20;;;19.90;71.00;;;;;;10447278;28;20025;-50
2023/05/23 02:36:39;;;;;;;7.75;5.70;;;19.90;71.00;;;;;;10447951;28;20061;-46
2023/05/23 02:41:39;;;;;;;5.47;4.72;;;19.90;71.00;;;;;;10446883;28;20020;-48
2023/05/23 02:46:40;;;;;;;7.03;5.13;;;19.90;71.00;;;;;;10447068;28;20483;-46
2023/05/23 02:51:41;;;;;;;6.65;5.57;;;19.90;71.00;;;;;;10446642;28;20060;-45
2023/05/23 02:56:41;;;;;;;7.22;5.97;;;19.90;71.00;;;;;;10446490;28;20092;-47
2023/05/23 03:01:42;;;;;;;7.07;5.43;;;19.90;71.00;;;;;;10443575;28;20475;-45
2023/05/23 03:06:43;;;;;;;5.97;4.68;;;19.90;70.90;;;;;;10404861;28;20039;-46
2023/05/23 03:11:43;;;;;;;5.22;4.72;;;19.90;71.00;;;;;;10405070;28;20017;-48
2023/05/23 03:16:44;;;;;;;6.45;5.18;;;19.90;71.00;;;;;;10404551;28;20045;-48
2023/05/23 03:21:45;;;;;;;8.43;5.40;;;19.90;71.00;;;;;;10439610;28;20059;-48
2023/05/23 03:26:45;;;;;;;5.95;4.82;;;19.90;71.00;;;;;;10454204;28;20391;-47
2023/05/23 03:31:46;;;;;;;7.38;5.20;;;19.90;71.00;;;;;;10444830;28;20142;-46
2023/05/23 03:36:47;;;;;;;5.40;4.75;;;19.90;71.00;;;;;;10435988;28;20535;-47
2023/05/23 03:41:47;;;;;;;7.72;5.55;;;19.80;70.90;;;;;;10452471;28;20096;-47
2023/05/23 03:46:48;;;;;;;6.22;5.47;;;19.80;70.90;;;;;;10449662;28;20029;-46
2023/05/23 03:51:49;;;;;;;5.43;4.70;;;19.90;71.00;;;;;;10449993;28;20018;-46
2023/05/23 03:56:50;;;;;;;4.80;4.30;;;19.80;70.90;;;;;;10451005;28;20376;-48
2023/05/23 04:01:51;;;;;;;6.65;4.93;;;19.80;70.90;;;;;;10452579;28;20119;-46
2023/05/23 04:06:51;;;;;;;5.07;4.20;;;19.80;70.90;;;;;;10450849;28;20057;-47
2023/05/23 04:11:52;;;;;;;7.80;4.90;;;19.80;71.60;;;;;;10443368;28;20013;-46
2023/05/23 04:16:53;;;;;;;5.70;4.57;;;19.80;71.00;;;;;;10451699;28;20194;-48
2023/05/23 04:21:53;;;;;;;6.57;5.25;;;19.80;70.90;;;;;;10449644;28;20558;-48
2023/05/23 04:26:55;;;;;;;5.25;4.20;;;19.80;70.90;;;;;;10438900;28;20128;-46
2023/05/23 04:31:56;;;;;;;6.95;5.05;;;19.80;70.80;;;;;;10452148;28;20021;-49
2023/05/23 04:36:56;;;;;;;8.23;4.60;;;19.80;70.90;;;;;;10451616;28;20037;-46
2023/05/23 04:41:58;;;;;;;5.72;4.97;;;19.80;70.90;;;;;;10451569;28;20124;-45
2023/05/23 04:47:01;;;;;;;7.30;5.00;;;19.80;70.70;;;;;;10410225;28;20072;-48
2023/05/23 04:52:02;;;;;;;10.57;5.20;;;19.80;70.80;;;;;;10437905;28;20566;-46
2023/05/23 04:57:03;;;;;;;10.65;5.30;;;19.80;70.90;;;;;;10449466;28;20021;-46
2023/05/23 05:02:05;;;;;;;9.75;5.20;;;19.90;70.60;;;;;;10451141;28;20399;-47
2023/05/23 05:07:06;;;;;;;15.40;6.35;;;20.00;71.00;;;;;;10450152;28;20021;-48
2023/05/23 05:12:07;;;;;;;10.02;4.80;;;20.10;71.10;;;;;;10450128;28;20028;-47
2023/05/23 05:17:07;;;;;;;10.00;6.40;;;20.20;71.00;;;;;;10449660;28;20041;-48
2023/05/23 05:22:08;;;;;;;10.60;5.05;;;20.20;71.10;;;;;;10447470;28;20115;-48
2023/05/23 05:27:10;;;;;;;13.52;6.30;;;20.20;70.70;;;;;;10449698;28;20618;-58
2023/05/23 05:32:11;;;;;;;15.13;6.22;;;20.10;71.00;;;;;;10438162;28;20104;-57
2023/05/23 05:37:12;;;;;;;11.82;5.63;;;20.10;71.10;;;;;;10447215;28;20032;-57
2023/05/23 05:42:13;;;;;;;23.00;6.85;;;20.00;71.00;;;;;;10432498;28;20387;-55
2023/05/23 05:47:15;;;;;;;11.88;5.85;;;20.00;71.20;;;;;;10446797;28;20033;-58
2023/05/23 05:52:15;;;;;;;17.83;5.78;;;20.00;71.10;;;;;;10448329;28;20028;-58
2023/05/23 05:57:16;;;;;;;13.80;5.95;;;20.00;71.10;;;;;;10447949;28;20112;-58
2023/05/23 06:02:17;;;;;;;14.45;5.53;;;20.00;71.00;;;;;;10448213;28;20025;-56
2023/05/23 06:07:18;;;;;;;12.45;5.85;;;19.90;71.00;;;;;;10446953;28;20112;-54
2023/05/23 06:12:18;;;;;;;14.75;5.63;;;19.90;71.00;;;;;;10447178;28;20021;-57
2023/05/23 06:17:19;;;;;;;17.08;6.05;;;19.90;71.00;;;;;;10447149;28;20540;-57
2023/05/23 06:22:20;;;;;;;10.63;5.72;;;19.90;71.00;;;;;;10446867;28;20057;-57
2023/05/23 06:27:20;;;;;;;10.52;5.28;;;19.80;70.90;;;;;;10445896;28;20098;-57
2023/05/23 06:32:21;;;;;;;9.65;4.95;;;19.80;70.60;;;;;;10446542;28;20096;-56
2023/05/23 06:37:21;;;;;;;14.75;5.35;;;19.80;70.60;;;;;;10441536;28;20025;-56
2023/05/23 06:42:22;;;;;;;9.02;5.15;;;19.80;70.80;;;;;;10438736;28;20159;-56
2023/05/23 06:47:23;;;;;;;9.77;5.32;;;19.80;70.90;;;;;;10433841;28;20072;-58
2023/05/23 06:52:23;;;;;;;7.43;4.60;;;19.80;70.40;;;;;;10445300;28;20020;-59
2023/05/23 06:57:24;;;;;;;9.52;4.50;;;19.80;70.20;;;;;;10445211;28;20096;-58
2023/05/23 07:02:25;;;;;;;9.63;5.20;;;19.80;70.10;;;;;;10445808;28;20053;-58
2023/05/23 07:07:25;;;;;;;11.73;5.20;;;19.80;70.10;;;;;;10444998;28;20183;-59
2023/05/23 07:12:26;;;;;;;11.77;4.60;;;19.90;70.00;;;;;;10436218;28;20068;-57
2023/05/23 07:17:29;;;;;;;13.40;5.38;;;19.90;69.50;;;;;;10436629;28;20080;-59
2023/05/23 07:22:30;;;;;;;7.45;4.70;;;19.90;69.60;;;;;;10437717;28;20045;-59
2023/05/23 07:27:31;;;;;;;7.13;3.92;;;19.90;69.50;;;;;;10431092;28;20139;-59
2023/05/23 07:32:31;;;;;;;11.48;6.22;;;19.90;70.00;;;;;;10439474;28;20530;-56
2023/05/23 07:37:32;;;;;;;9.27;4.35;;;20.00;69.80;;;;;;10443259;28;20151;-57
2023/05/23 07:42:33;;;;;;;7.18;4.43;;;20.00;69.70;;;;;;10443442;28;20104;-56
2023/05/23 07:47:33;;;;;;;9.35;4.93;;;19.90;69.90;;;;;;10438920;28;20111;-56
2023/05/23 07:52:35;;;;;;;6.95;4.20;;;19.90;69.00;;;;;;10441093;28;20104;-57
2023/05/23 07:57:35;;;;;;;7.90;5.07;;;19.80;69.10;;;;;;10441625;28;20075;-57
2023/05/23 08:02:36;;;;;;;8.35;4.10;;;19.80;69.20;;;;;;10444445;28;20160;-57
2023/05/23 08:07:37;;;;;;;9.32;4.28;;;19.80;69.20;;;;;;10445034;28;20614;-57
2023/05/23 08:12:37;;;;;;;8.18;4.70;;;19.80;69.10;;;;;;10451657;28;20045;-54
2023/05/23 08:17:38;;;;;;;8.38;4.28;;;19.80;69.00;;;;;;10450029;28;20080;-55
2023/05/23 08:22:39;;;;;;;5.75;4.13;;;19.80;68.90;;;;;;10449815;28;20028;-55
2023/05/23 08:27:40;;;;;;;7.93;4.38;;;19.80;68.70;;;;;;10449698;28;20040;-50
2023/05/23 08:32:40;;;;;;;6.90;4.60;;;19.80;68.50;;;;;;10449112;28;20053;-55
2023/05/23 08:37:41;;;;;;;6.85;4.22;;;19.80;68.50;;;;;;10452062;28;20109;-56
2023/05/23 08:42:42;;;;;;;7.05;3.97;;;19.90;68.80;;;;;;10451635;28;20460;-54
2023/05/23 08:47:45;;;;;;;6.32;3.28;;;19.90;68.20;;;;;;10451042;28;20033;-51
2023/05/23 08:52:56;;;;;;;9.50;3.75;;;20.00;67.50;;;;;;10448541;28;20037;-56
2023/05/23 08:57:59;;;;;;;7.82;3.58;;;19.90;67.30;;;;;;10450912;28;20059;-55
2023/05/23 09:02:59;;;;;;;6.28;3.42;;;19.90;67.80;;;;;;10438400;28;20495;-56
2023/05/23 09:08:00;;;;;;;5.70;4.00;;;19.90;68.30;;;;;;10409067;28;20039;-56
2023/05/23 09:13:03;;;;;;;7.97;2.95;;;19.90;68.30;;;;;;10409270;28;20082;-55
2023/05/23 09:18:04;;;;;;;5.03;3.25;;;19.90;67.90;;;;;;10410159;28;20049;-57
2023/05/23 09:23:05;;;;;;;6.47;3.72;;;19.80;67.70;;;;;;10449841;28;20025;-53
2023/05/23 09:28:05;;;;;;;7.18;4.55;;;19.80;67.70;;;;;;10449631;28;20360;-55
2023/05/23 09:33:07;;;;;;;5.85;3.40;;;19.80;67.60;;;;;;10448966;28;20103;-54
2023/05/23 09:38:07;;;;;;;7.90;3.67;;;19.90;67.70;;;;;;10461955;28;20029;-54
2023/05/23 09:43:08;;;;;;;5.47;2.83;;;19.80;67.80;;;;;;10439476;28;20026;-55
2023/05/23 09:48:12;;;;;;;6.32;3.35;;;19.90;68.20;;;;;;10407496;28;20037;-55
2023/05/23 09:53:13;;;;;;;7.63;3.15;;;19.90;67.10;;;;;;10407341;28;20025;-56
2023/05/23 09:58:15;;;;;;;6.18;3.75;;;19.90;66.70;;;;;;10446496;28;20047;-54
2023/05/23 10:03:18;;;;;;;6.10;2.67;;;19.90;66.70;;;;;;10446479;28;20079;-57
2023/05/23 10:08:26;;;;;;;9.63;3.38;;;20.00;66.20;;;;;;10416703;28;20091;-53
2023/05/23 10:13:28;;;;;;;5.97;3.22;;;20.00;65.90;;;;;;10406673;28;20018;-54
2023/05/23 10:18:32;;;;;;;6.88;3.08;;;20.00;65.80;;;;;;10412229;28;20087;-56
2023/05/23 10:23:33;;;;;;;9.30;3.95;;;20.00;65.80;;;;;;10446211;28;20025;-56
2023/05/23 10:28:34;;;;;;;6.82;2.97;;;20.00;65.80;;;;;;10446473;28;20041;-54
2023/05/23 10:33:41;;;;;;;6.97;3.60;;;20.00;65.70;;;;;;10441354;28;20021;-53
2023/05/23 10:38:55;;;;;;;8.38;2.97;;;20.00;65.30;;;;;;10445658;28;20083;-54
2023/05/23 10:44:29;;;;;;;6.63;3.45;;;20.10;65.40;;;;;;10445259;28;20040;-53
2023/05/23 10:49:51;;;;;;;5.30;2.97;;;20.00;65.50;;;;;;10432986;28;20551;-57
2023/05/23 10:54:54;;;;;;;3.97;2.65;;;20.00;65.40;;;;;;10437296;28;20122;-57
2023/05/23 10:59:55;;;;;;;7.32;3.25;;;20.10;65.20;;;;;;10498713;28;20441;-58
2023/05/23 11:05:19;;;;;;;7.80;4.18;;;20.10;65.20;;;;;;10526860;28;20132;-58
2023/05/23 11:10:20;;;;;;;8.05;3.53;;;20.10;65.40;;;;;;10563402;28;20390;-58
2023/05/23 11:15:21;;;;;;;8.52;3.63;;;20.20;65.00;;;;;;10550119;28;20131;-58
2023/05/23 11:20:27;;;;;;;8.32;3.22;;;20.20;65.00;;;;;;10553752;28;20116;-56
2023/05/23 11:25:47;;;;;;;9.05;3.22;;;20.20;65.10;;;;;;10487614;28;20057;-56
2023/05/23 11:30:48;;;;;;;5.68;3.42;;;20.20;65.10;;;;;;10442609;28;20017;-58
2023/05/23 11:35:50;;;;;;;5.00;2.70;;;20.20;65.10;;;;;;10442683;28;20435;-57
2023/05/23 11:40:51;;;;;;;7.47;2.90;;;20.20;65.40;;;;;;10436740;28;20025;-59
2023/05/23 11:45:51;;;;;;;5.00;2.90;;;20.30;65.40;;;;;;10447715;28;20053;-55
2023/05/23 11:50:53;;;;;;;9.35;3.33;;;20.30;65.20;;;;;;10448939;28;20584;-57
2023/05/23 11:55:57;;;;;;;6.95;3.38;;;20.30;65.40;;;;;;10452243;28;20029;-58
2023/05/23 12:01:06;;;;;;;8.27;2.80;;;20.20;65.40;;;;;;10452542;28;20025;-59
2023/05/23 12:06:07;;;;;;;;;;;20.20;65.20;;;;;;10453171;28;20040;-57
2023/05/23 12:11:07;;;;;;;11.63;3.28;;;20.20;65.30;;;;;;10452290;28;19905;-57
2023/05/23 12:16:08;;;;;;;10.55;3.95;;;20.20;65.40;;;;;;10452291;28;20044;-58
2023/05/23 12:21:09;;;;;;;12.10;4.07;;;20.20;65.40;;;;;;10442371;28;20029;-56
2023/05/23 12:26:10;;;;;;;6.88;3.40;;;20.20;65.40;;;;;;10435576;28;20790;-60
2023/05/23 12:31:17;;;;;;;7.50;2.58;;;20.20;65.50;;;;;;10437087;28;20090;-58
2023/05/23 12:36:25;;;;;;;10.20;2.97;;;20.30;65.30;;;;;;10448786;28;20477;-58
2023/05/23 12:41:26;;;;;;;9.52;3.38;;;20.30;65.20;;;;;;10463313;28;20402;-57
2023/05/23 12:46:27;;;;;;;8.85;3.35;;;20.20;64.90;;;;;;10449796;28;20037;-57
2023/05/23 12:51:27;;;;;;;13.60;4.78;;;20.30;65.20;;;;;;10449417;28;20168;-54
2023/05/23 12:56:28;;;;;;;11.30;3.38;;;20.30;64.90;;;;;;10448321;28;20029;-55
2023/05/23 13:01:29;;;;;;;8.27;3.53;;;20.30;64.40;;;;;;10449795;28;20134;-55
2023/05/23 13:06:30;;;;;;;6.63;3.10;;;20.40;64.40;;;;;;10444406;28;20025;-57
2023/05/23 13:11:31;;;;;;;11.77;4.18;;;20.40;64.40;;;;;;10446529;28;20124;-57
2023/05/23 13:16:31;;;;;;;6.75;3.30;;;20.40;64.50;;;;;;10446652;28;20041;-54
2023/05/23 13:21:32;;;;;;;6.50;3.42;;;20.30;64.50;;;;;;10449643;28;20111;-57
2023/05/23 13:26:33;;;;;;;5.40;3.03;;;20.20;64.50;;;;;;10449829;28;20028;-56
2023/05/23 13:31:34;;;;;;;8.98;4.63;;;20.20;64.10;;;;;;10449300;28;20434;-57
2023/05/23 13:36:34;;;;;;;7.28;3.13;;;20.20;64.30;;;;;;10450031;28;20045;-58
2023/05/23 13:41:35;;;;;;;7.22;3.13;;;20.20;64.50;;;;;;10449413;28;20033;-57
2023/05/23 13:46:36;;;;;;;8.07;3.50;;;20.20;64.50;;;;;;10448705;28;20021;-58
2023/05/23 13:51:36;;;;;;;7.25;4.40;;;20.20;64.40;;;;;;10448598;28;20076;-58
2023/05/23 13:56:39;;;;;;;7.18;3.05;;;20.10;63.80;;;;;;10440273;28;20392;-56
2023/05/23 14:01:39;;;;;;;6.60;3.28;;;20.10;64.00;;;;;;10433238;28;20030;-55
2023/05/23 14:06:40;;;;;;;8.27;3.28;;;20.10;63.70;;;;;;10426206;28;20104;-55
2023/05/23 14:11:41;;;;;;;5.97;3.58;;;20.10;63.90;;;;;;10447622;28;20464;-58
2023/05/23 14:16:41;;;;;;;7.07;3.20;;;20.10;64.00;;;;;;10445157;28;20552;-55
2023/05/23 14:21:42;;;;;;;6.75;2.88;;;20.20;64.10;;;;;;10446202;28;20100;-55
2023/05/23 14:26:43;;;;;;;6.28;3.58;;;20.20;64.30;;;;;;10439569;28;20112;-55
2023/05/23 14:31:43;;;;;;;14.43;4.43;;;20.20;64.30;;;;;;10412079;28;20110;-54
2023/05/23 14:36:44;;;;;;;11.70;4.03;;;20.30;64.60;;;;;;10430558;28;20532;-56
2023/05/23 14:41:45;;;;;;;14.02;3.97;;;20.30;64.90;;;;;;10446424;28;20063;-57
2023/05/23 14:46:48;;;;;;;14.48;4.32;;;20.30;64.10;;;;;;10446715;28;20104;-55
2023/05/23 14:51:49;;;;;;;20.80;5.72;;;20.20;64.80;;;;;;10446389;28;20052;-57
2023/05/23 14:56:50;;;;;;;12.88;4.32;;;20.30;65.20;;;;;;10446194;28;20428;-55
2023/05/23 15:01:51;;;;;;;22.17;4.63;;;20.30;65.00;;;;;;10446333;28;20031;-56
2023/05/23 15:06:51;;;;;;;16.40;4.47;;;20.20;65.10;;;;;;10443461;28;20031;-58
2023/05/23 15:11:53;;;;;;;20.25;4.45;;;20.30;64.70;;;;;;10425274;28;20109;-56
2023/05/23 15:16:54;;;;;;;17.42;4.95;;;20.30;64.90;;;;;;10404986;28;20041;-58
2023/05/23 15:21:55;;;;;;;20.05;5.18;;;20.20;65.40;;;;;;10439183;28;20418;-58
2023/05/23 15:26:55;;;;;;;21.63;5.70;;;20.20;65.50;;;;;;10445673;28;20025;-58
2023/05/23 15:31:56;;;;;;;14.95;4.38;;;20.20;65.70;;;;;;10444545;28;20162;-58
2023/05/23 15:36:57;;;;;;;16.50;5.22;;;20.20;65.50;;;;;;10446521;28;20108;-58
2023/05/23 15:41:58;;;;;;;13.75;4.80;;;20.20;65.70;;;;;;10445747;28;20108;-58
2023/05/23 15:46:59;;;;;;;15.60;4.63;;;20.20;65.30;;;;;;10427376;28;20407;-55
2023/05/23 15:52:00;;;;;;;22.88;9.88;;;20.20;65.30;;;;;;10440623;28;20036;-53
2023/05/23 15:57:00;;;;;;;34.55;14.63;;;20.30;64.90;;;;;;10445338;28;20013;-57
2023/05/23 16:02:04;;;;;;;27.10;13.15;;;20.20;64.50;;;;;;10444916;28;20527;-54
2023/05/23 16:07:05;;;;;;;31.80;11.38;;;20.40;66.90;;;;;;10445350;28;20646;-56
2023/05/23 16:12:06;;;;;;;30.15;10.82;;;20.60;65.00;;;;;;10439565;28;20033;-57
2023/05/23 16:17:07;;;;;;;33.90;11.38;;;20.70;64.40;;;;;;10436817;28;20034;-56
2023/05/23 16:22:07;;;;;;;26.27;10.35;;;20.80;63.70;;;;;;10417271;28;20460;-56
2023/05/23 16:27:08;;;;;;;24.95;9.98;;;20.80;64.00;;;;;;10433994;28;20063;-56
2023/05/23 16:32:09;;;;;;;19.88;9.60;;;20.80;64.40;;;;;;10450368;28;20119;-57
2023/05/23 16:37:09;;;;;;;21.23;9.23;;;20.80;63.90;;;;;;10439984;28;20147;-59
2023/05/23 16:42:10;;;;;;;21.23;8.00;;;20.70;63.00;;;;;;10431178;28;20041;-56
2023/05/23 16:47:11;;;;;;;20.88;7.53;;;20.60;63.60;;;;;;10410665;28;20028;-58
2023/05/23 16:52:12;;;;;;;24.60;8.27;;;20.50;63.70;;;;;;10420628;28;20104;-55
2023/05/23 16:57:13;;;;;;;20.77;8.63;;;20.50;63.20;;;;;;10410137;28;20032;-57
2023/05/23 17:02:14;;;;;;;22.42;9.77;;;20.50;63.20;;;;;;10439073;28;20033;-57
2023/05/23 17:07:15;;;;;;;24.98;7.25;;;20.40;63.10;;;;;;10449956;28;20021;-54
2023/05/23 17:12:16;;;;;;;23.38;7.90;;;20.40;63.10;;;;;;10448673;28;20025;-58
2023/05/23 17:17:16;;;;;;;17.13;7.05;;;20.40;63.30;;;;;;10443118;28;20041;-54
2023/05/23 17:22:17;;;;;;;18.58;6.03;;;20.40;63.00;;;;;;10449755;28;20115;-58
2023/05/23 17:27:18;;;;;;;16.30;7.47;;;20.40;62.80;;;;;;10450147;28;20387;-58
2023/05/23 17:32:19;;;;;;;16.55;7.35;;;20.50;62.60;;;;;;10449905;28;20056;-58
2023/05/23 17:37:20;;;;;;;19.52;7.32;;;20.40;63.50;;;;;;10449588;28;20020;-56
2023/05/23 17:42:21;;;;;;;17.45;6.70;;;20.40;63.70;;;;;;10449871;28;20074;-57
2023/05/23 17:47:21;;;;;;;19.30;6.68;;;20.40;63.80;;;;;;10446948;28;20017;-57
2023/05/23 17:52:22;;;;;;;23.13;6.30;;;20.40;63.80;;;;;;10444833;28;20117;-57
2023/05/23 17:57:23;;;;;;;17.67;6.38;;;20.40;63.50;;;;;;10396349;28;20025;-57
2023/05/23 18:02:25;;;;;;;14.73;5.78;;;20.40;63.90;;;;;;10425846;28;20021;-58
2023/05/23 18:07:26;;;;;;;19.30;6.03;;;20.40;63.90;;;;;;10437314;28;20039;-58
2023/05/23 18:12:26;;;;;;;17.05;6.13;;;20.40;63.90;;;;;;10435136;28;20530;-58
2023/05/23 18:17:27;;;;;;;13.95;5.85;;;20.40;62.80;;;;;;10445884;28;20045;-58
2023/05/23 18:22:30;;;;;;;12.75;5.55;;;20.40;62.80;;;;;;10444434;28;20140;-55
2023/05/23 18:27:31;;;;;;;14.65;5.82;;;20.40;62.80;;;;;;10441666;28;20028;-58
2023/05/23 18:32:31;;;;;;;12.25;5.78;;;20.40;62.80;;;;;;10443688;28;20060;-57
2023/05/23 18:37:32;;;;;;;12.73;5.60;;;20.40;63.00;;;;;;10439824;28;20064;-58
2023/05/23 18:42:33;;;;;;;18.67;4.38;;;20.40;63.50;;;;;;10417768;28;20116;-58
2023/05/23 18:47:34;;;;;;;9.15;4.57;;;20.40;63.50;;;;;;10444462;28;20057;-56
2023/05/23 18:52:36;;;;;;;13.27;4.82;;;20.30;63.80;;;;;;10442308;28;20033;-58
2023/05/23 18:57:36;;;;;;;12.90;4.90;;;20.30;63.50;;;;;;10442209;28;20055;-58
2023/05/23 19:02:42;;;;;;;13.18;4.75;;;20.20;63.60;;;;;;10442257;28;20456;-55
2023/05/23 19:07:43;;;;;;;15.85;4.60;;;20.20;63.70;;;;;;10442023;28;20082;-57
2023/05/23 19:12:43;;;;;;;11.60;4.00;;;20.20;63.70;;;;;;10438871;28;20078;-58
2023/05/23 19:17:45;;;;;;;17.13;6.57;;;20.20;63.70;;;;;;10441436;28;20108;-58
2023/05/23 19:22:46;;;;;;;11.25;4.60;;;20.20;63.70;;;;;;10440397;28;20384;-58
2023/05/23 19:27:47;;;;;;;10.85;5.25;;;20.20;63.70;;;;;;10443103;28;20112;-56
2023/05/23 19:32:48;;;;;;;7.10;3.92;;;20.20;63.80;;;;;;10404259;28;20379;-58
2023/05/23 19:37:48;;;;;;;10.07;3.53;;;20.10;63.60;;;;;;10434714;28;20112;-52
2023/05/23 19:42:49;;;;;;;6.10;2.63;;;20.10;63.50;;;;;;10438543;28;20021;-58
2023/05/23 19:47:50;;;;;;;8.35;2.90;;;20.10;62.60;;;;;;10442974;28;20021;-57
2023/05/23 19:52:51;;;;;;;7.40;3.83;;;20.00;63.30;;;;;;10441536;28;20021;-58
2023/05/23 19:57:52;;;;;;;9.30;4.05;;;19.90;63.20;;;;;;10441651;28;20070;-57
2023/05/23 20:02:52;;;;;;;10.23;4.15;;;19.90;63.20;;;;;;10444612;28;20021;-58
2023/05/23 20:07:53;;;;;;;7.30;3.10;;;19.90;63.10;;;;;;10449826;28;20114;-56
2023/05/23 20:12:54;;;;;;;8.95;3.03;;;19.80;62.90;;;;;;10450627;28;20495;-57
2023/05/23 20:17:55;;;;;;;6.03;3.58;;;19.80;62.70;;;;;;10450758;28;20039;-56
2023/05/23 20:22:55;;;;;;;9.10;2.97;;;19.90;62.70;;;;;;10452572;28;20037;-58
2023/05/23 20:27:56;;;;;;;8.63;3.17;;;19.80;62.60;;;;;;10452654;28;20108;-57
2023/05/23 20:32:57;;;;;;;7.60;3.17;;;19.80;62.60;;;;;;10451121;28;20021;-56
2023/05/23 20:37:58;;;;;;;6.03;2.60;;;19.80;62.60;;;;;;10451192;28;20066;-57
2023/05/23 20:43:03;;;;;;;6.25;2.55;;;19.70;62.30;;;;;;10451162;28;20025;-56
2023/05/23 20:48:03;;;;;;;6.47;2.92;;;19.70;62.30;;;;;;10450399;28;20430;-56
2023/05/23 20:53:05;;;;;;;7.50;2.70;;;19.70;62.80;;;;;;10450522;28;20155;-56
2023/05/23 20:58:06;;;;;;;7.50;3.13;;;19.70;62.10;;;;;;10450859;28;20036;-58
2023/05/23 21:03:06;;;;;;;5.90;2.40;;;19.70;62.10;;;;;;10450851;28;20044;-58
2023/05/23 21:08:07;;;;;;;6.78;3.25;;;19.70;62.10;;;;;;10409736;28;20017;-57
2023/05/23 21:13:08;;;;;;;9.00;2.60;;;19.70;62.00;;;;;;10436015;28;20463;-57
2023/05/23 21:18:08;;;;;;;6.95;2.60;;;19.70;62.10;;;;;;10449600;28;20061;-55
2023/05/23 21:23:09;;;;;;;5.85;2.50;;;19.60;61.90;;;;;;10450202;28;20024;-56
2023/05/23 21:28:10;;;;;;;5.40;2.88;;;19.60;61.80;;;;;;10450105;28;20123;-55
2023/05/23 21:33:11;;;;;;;6.07;2.08;;;19.60;61.80;;;;;;10449986;28;20017;-57
2023/05/23 21:38:11;;;;;;;7.78;2.28;;;19.60;61.80;;;;;;10450578;28;20025;-57
2023/05/23 21:43:12;;;;;;;8.20;2.58;;;19.60;61.80;;;;;;10449500;28;20099;-57
2023/05/23 21:48:13;;;;;;;7.72;2.47;;;19.60;61.70;;;;;;10449306;28;20118;-57
2023/05/23 21:53:13;;;;;;;8.23;2.80;;;19.60;61.80;;;;;;10449232;28;20126;-57
2023/05/23 21:58:15;;;;;;;4.43;2.25;;;19.50;61.60;;;;;;10449144;28;20029;-57
2023/05/23 22:03:15;;;;;;;6.85;2.40;;;19.60;61.70;;;;;;10422541;28;20025;-57
2023/05/23 22:08:16;;;;;;;5.10;1.88;;;19.50;61.50;;;;;;10407088;28;20513;-57
2023/05/23 22:13:17;;;;;;;5.65;2.70;;;19.50;61.50;;;;;;10406968;28;20034;-58
2023/05/23 22:18:18;;;;;;;7.63;2.17;;;19.50;61.40;;;;;;10411422;28;20041;-58
2023/05/23 22:23:19;;;;;;;4.32;1.50;;;19.50;61.40;;;;;;10448073;28;20448;-58
2023/05/23 22:28:20;;;;;;;3.78;1.52;;;19.50;61.40;;;;;;10447230;28;20025;-56
2023/05/23 22:33:21;;;;;;;4.80;2.05;;;19.50;61.50;;;;;;10447534;28;20104;-57
2023/05/23 22:38:22;;;;;;;7.57;3.55;;;19.50;61.40;;;;;;10446217;28;20562;-56
2023/05/23 22:43:22;;;;;;;5.75;2.60;;;19.40;61.30;;;;;;10446343;28;20120;-57
2023/05/23 22:48:26;;;;;;;4.20;1.88;;;19.50;61.90;;;;;;10447129;28;20029;-57
2023/05/23 22:53:27;;;;;;;7.35;2.72;;;19.40;61.30;;;;;;10446901;28;20024;-57
2023/05/23 22:58:28;;;;;;;4.18;1.88;;;19.40;61.20;;;;;;10445824;28;20403;-56
2023/05/23 23:03:29;;;;;;;4.50;1.42;;;19.40;61.30;;;;;;10446902;28;20029;-58
2023/05/23 23:08:29;;;;;;;5.55;1.70;;;19.40;61.20;;;;;;10446612;28;20021;-55
2023/05/23 23:13:30;;;;;;;7.25;2.00;;;19.30;61.60;;;;;;10445119;28;20060;-57
2023/05/23 23:18:31;;;;;;;4.78;2.00;;;19.30;60.90;;;;;;10446396;28;20563;-56
2023/05/23 23:23:31;;;;;;;3.10;1.50;;;19.30;60.90;;;;;;10446257;28;20051;-56
2023/05/23 23:28:32;;;;;;;4.65;1.60;;;19.30;60.80;;;;;;10446251;28;20078;-57
2023/05/23 23:33:33;;;;;;;3.80;1.92;;;19.30;60.80;;;;;;10446247;28;20049;-58
2023/05/23 23:38:33;;;;;;;4.97;2.10;;;19.30;60.80;;;;;;10448014;28;20582;-56
2023/05/23 23:43:34;;;;;;;4.13;2.35;;;19.30;60.70;;;;;;10454301;28;20082;-57
2023/05/23 23:48:35;;;;;;;3.15;1.52;;;19.30;60.70;;;;;;10454428;28;20351;-56
2023/05/23 23:53:35;;;;;;;4.97;1.80;;;19.30;61.20;;;;;;10453829;28;20068;-58
2023/05/23 23:58:36;;;;;;;5.97;1.90;;;19.20;60.50;;;;;;10453563;28;20108;-57
